sensor_id;sensor_type;location;lat;lon;timestamp;pressure;altitude;pressure_sealevel;temperature;humidity
11856;BME280;5987;53.140;8.904;2024-01-30T00:00:27;102855.56;;;3.70;100.00
11856;BME280;5987;53.140;8.904;2024-01-30T00:03:30;102855.38;;;3.64;100.00
11856;BME280;5987;53.140;8.904;2024-01-30T00:06:34;102856.75;;;3.50;100.00
11856;BME280;5987;53.140;8.904;2024-01-30T00:09:38;102861.81;;;3.43;100.00
11856;BME280;5987;53.140;8.904;2024-01-30T00:12:44;102862.69;;;3.44;100.00
11856;BME280;5987;53.140;8.904;2024-01-30T00:15:47;102860.00;;;3.41;100.00
11856;BME280;5987;53.140;8.904;2024-01-30T00:18:51;102858.22;;;3.38;100.00
11856;BME280;5987;53.140;8.904;2024-01-30T00:21:55;102859.91;;;3.36;100.00
11856;BME280;5987;53.140;8.904;2024-01-30T00:24:59;102857.16;;;3.32;100.00
11856;BME280;5987;53.140;8.904;2024-01-30T00:28:05;102861.56;;;3.34;100.00
11856;BME280;5987;53.140;8.904;2024-01-30T00:31:09;102856.25;;;3.30;100.00
11856;BME280;5987;53.140;8.904;2024-01-30T00:34:14;102864.13;;;3.33;100.00
11856;BME280;5987;53.140;8.904;2024-01-30T00:37:18;102861.34;;;3.25;100.00
11856;BME280;5987;53.140;8.904;2024-01-30T00:40:22;102862.06;;;3.19;100.00
11856;BME280;5987;53.140;8.904;2024-01-30T00:43:28;102865.41;;;3.15;100.00
11856;BME280;5987;53.140;8.904;2024-01-30T00:46:32;102865.31;;;3.12;100.00
11856;BME280;5987;53.140;8.904;2024-01-30T00:49:36;102870.50;;;3.12;100.00
11856;BME280;5987;53.140;8.904;2024-01-30T00:52:40;102864.50;;;3.15;100.00
11856;BME280;5987;53.140;8.904;2024-01-30T00:55:44;102868.03;;;3.17;100.00
11856;BME280;5987;53.140;8.904;2024-01-30T00:58:49;102860.88;;;3.08;100.00
11856;BME280;5987;53.140;8.904;2024-01-30T01:01:52;102863.53;;;3.09;100.00
11856;BME280;5987;53.140;8.904;2024-01-30T01:04:56;102859.13;;;3.07;100.00
11856;BME280;5987;53.140;8.904;2024-01-30T01:08:00;102860.94;;;3.09;100.00
11856;BME280;5987;53.140;8.904;2024-01-30T01:11:04;102858.19;;;3.05;100.00
11856;BME280;5987;53.140;8.904;2024-01-30T01:14:09;102857.31;;;3.04;100.00
11856;BME280;5987;53.140;8.904;2024-01-30T01:17:12;102860.81;;;3.06;100.00
11856;BME280;5987;53.140;8.904;2024-01-30T01:20:16;102860.03;;;3.09;100.00
11856;BME280;5987;53.140;8.904;2024-01-30T01:23:20;102849.66;;;3.09;100.00
11856;BME280;5987;53.140;8.904;2024-01-30T01:26:24;102848.00;;;3.11;100.00
11856;BME280;5987;53.140;8.904;2024-01-30T01:29:29;102839.34;;;3.12;100.00
11856;BME280;5987;53.140;8.904;2024-01-30T01:32:32;102839.31;;;3.11;100.00
11856;BME280;5987;53.140;8.904;2024-01-30T01:35:36;102840.50;;;3.23;100.00
11856;BME280;5987;53.140;8.904;2024-01-30T01:38:40;102836.19;;;3.22;100.00
11856;BME280;5987;53.140;8.904;2024-01-30T01:41:44;102831.66;;;3.15;100.00
11856;BME280;5987;53.140;8.904;2024-01-30T01:44:49;102830.00;;;3.19;100.00
11856;BME280;5987;53.140;8.904;2024-01-30T01:47:53;102822.28;;;3.22;100.00
11856;BME280;5987;53.140;8.904;2024-01-30T01:50:58;102824.09;;;3.24;100.00
11856;BME280;5987;53.140;8.904;2024-01-30T01:54:04;102820.66;;;3.25;100.00
11856;BME280;5987;53.140;8.904;2024-01-30T01:57:08;102821.75;;;3.34;100.00
11856;BME280;5987;53.140;8.904;2024-01-30T02:00:14;102820.03;;;3.34;100.00
11856;BME280;5987;53.140;8.904;2024-01-30T02:03:18;102824.41;;;3.37;100.00
11856;BME280;5987;53.140;8.904;2024-01-30T02:06:24;102817.53;;;3.39;100.00
11856;BME280;5987;53.140;8.904;2024-01-30T02:09:28;102819.22;;;3.37;100.00
11856;BME280;5987;53.140;8.904;2024-01-30T02:12:32;102819.28;;;3.40;100.00
11856;BME280;5987;53.140;8.904;2024-01-30T02:15:37;102822.09;;;3.48;100.00
11856;BME280;5987;53.140;8.904;2024-01-30T02:18:41;102821.44;;;3.56;100.00
11856;BME280;5987;53.140;8.904;2024-01-30T02:21:50;102821.16;;;3.46;100.00
11856;BME280;5987;53.140;8.904;2024-01-30T02:24:54;102799.41;;;3.40;100.00
11856;BME280;5987;53.140;8.904;2024-01-30T02:27:57;102807.53;;;3.54;100.00
11856;BME280;5987;53.140;8.904;2024-01-30T02:31:01;102809.22;;;3.52;100.00
11856;BME280;5987;53.140;8.904;2024-01-30T02:34:05;102808.25;;;3.49;100.00
11856;BME280;5987;53.140;8.904;2024-01-30T02:37:10;102801.50;;;3.55;100.00
11856;BME280;5987;53.140;8.904;2024-01-30T02:40:14;102800.34;;;3.44;100.00
11856;BME280;5987;53.140;8.904;2024-01-30T02:43:18;102799.63;;;3.50;100.00
11856;BME280;5987;53.140;8.904;2024-01-30T02:46:22;102797.31;;;3.60;100.00
11856;BME280;5987;53.140;8.904;2024-01-30T02:49:26;102792.63;;;3.47;100.00
11856;BME280;5987;53.140;8.904;2024-01-30T02:52:31;102791.84;;;3.50;100.00
11856;BME280;5987;53.140;8.904;2024-01-30T02:55:35;102797.66;;;3.39;100.00
11856;BME280;5987;53.140;8.904;2024-01-30T02:58:40;102791.56;;;3.39;100.00
11856;BME280;5987;53.140;8.904;2024-01-30T03:01:44;102801.75;;;3.30;100.00
11856;BME280;5987;53.140;8.904;2024-01-30T03:04:49;102796.34;;;3.22;100.00
11856;BME280;5987;53.140;8.904;2024-01-30T03:07:54;102794.34;;;3.12;100.00
11856;BME280;5987;53.140;8.904;2024-01-30T03:10:58;102799.38;;;3.04;100.00
11856;BME280;5987;53.140;8.904;2024-01-30T03:14:01;102788.25;;;3.09;100.00
11856;BME280;5987;53.140;8.904;2024-01-30T03:17:06;102806.22;;;3.02;100.00
11856;BME280;5987;53.140;8.904;2024-01-30T03:20:11;102797.66;;;3.06;100.00
11856;BME280;5987;53.140;8.904;2024-01-30T03:23:16;102804.28;;;2.95;100.00
11856;BME280;5987;53.140;8.904;2024-01-30T03:26:20;102797.19;;;2.87;100.00
11856;BME280;5987;53.140;8.904;2024-01-30T03:29:23;102793.69;;;2.87;100.00
11856;BME280;5987;53.140;8.904;2024-01-30T03:32:27;102801.59;;;2.90;100.00
11856;BME280;5987;53.140;8.904;2024-01-30T03:35:31;102800.16;;;3.01;100.00
11856;BME280;5987;53.140;8.904;2024-01-30T03:38:36;102806.28;;;3.05;100.00
11856;BME280;5987;53.140;8.904;2024-01-30T03:41:42;102809.06;;;3.11;100.00
11856;BME280;5987;53.140;8.904;2024-01-30T03:44:46;102804.56;;;3.04;100.00
11856;BME280;5987;53.140;8.904;2024-01-30T03:47:50;102803.63;;;3.02;100.00
11856;BME280;5987;53.140;8.904;2024-01-30T03:50:54;102810.28;;;2.92;100.00
11856;BME280;5987;53.140;8.904;2024-01-30T03:53:59;102814.00;;;3.02;100.00
11856;BME280;5987;53.140;8.904;2024-01-30T03:57:04;102813.66;;;2.89;100.00
11856;BME280;5987;53.140;8.904;2024-01-30T04:00:09;102818.81;;;2.88;100.00
11856;BME280;5987;53.140;8.904;2024-01-30T04:03:14;102821.44;;;2.89;100.00
11856;BME280;5987;53.140;8.904;2024-01-30T04:06:19;102823.28;;;2.94;100.00
11856;BME280;5987;53.140;8.904;2024-01-30T04:09:24;102822.34;;;2.90;100.00
11856;BME280;5987;53.140;8.904;2024-01-30T04:12:28;102823.88;;;2.83;100.00
11856;BME280;5987;53.140;8.904;2024-01-30T04:15:32;102829.00;;;2.80;100.00
11856;BME280;5987;53.140;8.904;2024-01-30T04:18:37;102831.59;;;2.80;100.00
11856;BME280;5987;53.140;8.904;2024-01-30T04:21:40;102838.50;;;2.81;100.00
11856;BME280;5987;53.140;8.904;2024-01-30T04:24:45;102837.94;;;2.91;100.00
11856;BME280;5987;53.140;8.904;2024-01-30T04:27:49;102825.06;;;2.95;100.00
11856;BME280;5987;53.140;8.904;2024-01-30T04:30:53;102833.72;;;2.95;100.00
11856;BME280;5987;53.140;8.904;2024-01-30T04:33:57;102830.31;;;2.98;100.00
11856;BME280;5987;53.140;8.904;2024-01-30T04:37:00;102833.00;;;3.01;100.00
11856;BME280;5987;53.140;8.904;2024-01-30T04:40:07;102831.63;;;3.14;100.00
11856;BME280;5987;53.140;8.904;2024-01-30T04:43:12;102830.59;;;3.07;100.00
11856;BME280;5987;53.140;8.904;2024-01-30T04:46:17;102830.81;;;3.16;100.00
11856;BME280;5987;53.140;8.904;2024-01-30T04:49:21;102824.00;;;3.20;100.00
11856;BME280;5987;53.140;8.904;2024-01-30T04:52:24;102832.72;;;3.23;100.00
11856;BME280;5987;53.140;8.904;2024-01-30T04:55:30;102822.13;;;3.14;100.00
11856;BME280;5987;53.140;8.904;2024-01-30T04:58:34;102826.44;;;3.14;100.00
11856;BME280;5987;53.140;8.904;2024-01-30T05:01:37;102822.97;;;3.15;100.00
11856;BME280;5987;53.140;8.904;2024-01-30T05:04:41;102828.22;;;3.16;100.00
11856;BME280;5987;53.140;8.904;2024-01-30T05:07:45;102822.94;;;3.13;100.00
11856;BME280;5987;53.140;8.904;2024-01-30T05:10:50;102842.00;;;3.14;100.00
11856;BME280;5987;53.140;8.904;2024-01-30T05:13:54;102833.22;;;3.08;100.00
11856;BME280;5987;53.140;8.904;2024-01-30T05:16:57;102829.78;;;3.09;100.00
11856;BME280;5987;53.140;8.904;2024-01-30T05:20:01;102825.38;;;3.07;100.00
11856;BME280;5987;53.140;8.904;2024-01-30T05:23:05;102826.97;;;3.02;100.00
11856;BME280;5987;53.140;8.904;2024-01-30T05:26:10;102828.63;;;2.98;100.00
11856;BME280;5987;53.140;8.904;2024-01-30T05:29:14;102828.56;;;2.97;100.00
11856;BME280;5987;53.140;8.904;2024-01-30T05:32:18;102835.53;;;2.99;100.00
11856;BME280;5987;53.140;8.904;2024-01-30T05:35:22;102828.47;;;2.94;100.00
11856;BME280;5987;53.140;8.904;2024-01-30T05:38:25;102835.47;;;2.96;100.00
11856;BME280;5987;53.140;8.904;2024-01-30T05:41:31;102837.88;;;2.88;100.00
11856;BME280;5987;53.140;8.904;2024-01-30T05:44:35;102837.06;;;2.91;100.00
11856;BME280;5987;53.140;8.904;2024-01-30T05:47:40;102846.47;;;2.87;100.00
11856;BME280;5987;53.140;8.904;2024-01-30T05:50:43;102848.06;;;2.82;100.00
11856;BME280;5987;53.140;8.904;2024-01-30T05:53:47;102855.00;;;2.83;100.00
11856;BME280;5987;53.140;8.904;2024-01-30T05:56:52;102860.28;;;2.86;100.00
11856;BME280;5987;53.140;8.904;2024-01-30T05:59:56;102859.38;;;2.84;100.00
11856;BME280;5987;53.140;8.904;2024-01-30T06:03:00;102869.84;;;2.87;100.00
11856;BME280;5987;53.140;8.904;2024-01-30T06:06:04;102863.75;;;2.87;100.00
11856;BME280;5987;53.140;8.904;2024-01-30T06:09:08;102868.91;;;2.85;100.00
11856;BME280;5987;53.140;8.904;2024-01-30T06:12:13;102876.88;;;2.91;100.00
11856;BME280;5987;53.140;8.904;2024-01-30T06:15:17;102882.84;;;2.89;100.00
11856;BME280;5987;53.140;8.904;2024-01-30T06:18:21;102879.38;;;2.88;100.00
11856;BME280;5987;53.140;8.904;2024-01-30T06:21:25;102883.72;;;2.89;100.00
11856;BME280;5987;53.140;8.904;2024-01-30T06:24:29;102888.91;;;2.89;100.00
11856;BME280;5987;53.140;8.904;2024-01-30T06:27:34;102888.81;;;2.86;100.00
11856;BME280;5987;53.140;8.904;2024-01-30T06:30:38;102880.25;;;2.89;100.00
11856;BME280;5987;53.140;8.904;2024-01-30T06:33:42;102882.94;;;2.92;100.00
11856;BME280;5987;53.140;8.904;2024-01-30T06:36:45;102882.94;;;2.92;100.00
11856;BME280;5987;53.140;8.904;2024-01-30T06:39:49;102886.41;;;2.92;100.00
11856;BME280;5987;53.140;8.904;2024-01-30T06:42:54;102889.88;;;2.93;100.00
11856;BME280;5987;53.140;8.904;2024-01-30T06:45:58;102897.00;;;3.00;100.00
11856;BME280;5987;53.140;8.904;2024-01-30T06:49:02;102894.31;;;2.97;100.00
11856;BME280;5987;53.140;8.904;2024-01-30T06:52:06;102896.84;;;2.94;100.00
11856;BME280;5987;53.140;8.904;2024-01-30T06:55:10;102897.72;;;2.95;100.00
11856;BME280;5987;53.140;8.904;2024-01-30T06:58:16;102896.84;;;2.94;100.00
11856;BME280;5987;53.140;8.904;2024-01-30T07:01:19;102906.41;;;2.97;100.00
11856;BME280;5987;53.140;8.904;2024-01-30T07:04:23;102899.47;;;2.96;100.00
11856;BME280;5987;53.140;8.904;2024-01-30T07:07:27;102907.47;;;3.03;100.00
11856;BME280;5987;53.140;8.904;2024-01-30T07:10:31;102901.47;;;3.06;100.00
11856;BME280;5987;53.140;8.904;2024-01-30T07:13:36;102904.97;;;3.08;100.00
11856;BME280;5987;53.140;8.904;2024-01-30T07:16:40;102896.50;;;3.14;100.00
11856;BME280;5987;53.140;8.904;2024-01-30T07:19:44;102892.34;;;3.20;100.00
11856;BME280;5987;53.140;8.904;2024-01-30T07:22:48;102903.66;;;3.22;100.00
11856;BME280;5987;53.140;8.904;2024-01-30T07:25:51;102907.34;;;3.31;100.00
11856;BME280;5987;53.140;8.904;2024-01-30T07:28:56;102891.78;;;3.31;100.00
11856;BME280;5987;53.140;8.904;2024-01-30T07:32:00;102897.09;;;3.35;100.00
11856;BME280;5987;53.140;8.904;2024-01-30T07:35:04;102888.56;;;3.41;100.00
11856;BME280;5987;53.140;8.904;2024-01-30T07:38:11;102892.25;;;3.49;100.00
11856;BME280;5987;53.140;8.904;2024-01-30T07:41:14;102884.44;;;3.48;100.00
11856;BME280;5987;53.140;8.904;2024-01-30T07:44:20;102881.06;;;3.52;100.00
11856;BME280;5987;53.140;8.904;2024-01-30T07:47:24;102873.38;;;3.56;100.00
11856;BME280;5987;53.140;8.904;2024-01-30T07:50:28;102870.16;;;3.67;100.00
11856;BME280;5987;53.140;8.904;2024-01-30T07:53:32;102863.44;;;3.75;100.00
11856;BME280;5987;53.140;8.904;2024-01-30T07:56:35;102858.34;;;3.80;100.00
11856;BME280;5987;53.140;8.904;2024-01-30T07:59:42;102853.34;;;3.87;100.00
11856;BME280;5987;53.140;8.904;2024-01-30T08:02:46;102855.19;;;3.91;100.00
11856;BME280;5987;53.140;8.904;2024-01-30T08:05:50;102843.31;;;4.03;100.00
11856;BME280;5987;53.140;8.904;2024-01-30T08:08:54;102840.78;;;4.06;100.00
11856;BME280;5987;53.140;8.904;2024-01-30T08:11:59;102846.28;;;4.20;100.00
11856;BME280;5987;53.140;8.904;2024-01-30T08:15:06;102842.25;;;4.33;100.00
11856;BME280;5987;53.140;8.904;2024-01-30T08:18:10;102847.66;;;4.42;100.00
11856;BME280;5987;53.140;8.904;2024-01-30T08:21:14;102835.69;;;4.50;100.00
11856;BME280;5987;53.140;8.904;2024-01-30T08:24:17;102820.97;;;4.52;100.00
11856;BME280;5987;53.140;8.904;2024-01-30T08:27:21;102812.78;;;4.76;100.00
11856;BME280;5987;53.140;8.904;2024-01-30T08:30:26;102797.19;;;4.78;100.00
11856;BME280;5987;53.140;8.904;2024-01-30T08:33:30;102797.41;;;4.89;100.00
11856;BME280;5987;53.140;8.904;2024-01-30T08:36:34;102787.84;;;4.89;100.00
11856;BME280;5987;53.140;8.904;2024-01-30T08:39:38;102779.19;;;4.90;100.00
11856;BME280;5987;53.140;8.904;2024-01-30T08:42:42;102774.28;;;5.06;100.00
11856;BME280;5987;53.140;8.904;2024-01-30T08:45:47;102772.50;;;5.05;100.00
11856;BME280;5987;53.140;8.904;2024-01-30T08:48:50;102769.28;;;5.18;100.00
11856;BME280;5987;53.140;8.904;2024-01-30T08:51:54;102771.19;;;5.28;100.00
11856;BME280;5987;53.140;8.904;2024-01-30T08:55:00;102754.09;;;5.46;100.00
11856;BME280;5987;53.140;8.904;2024-01-30T08:58:04;102749.88;;;5.54;100.00
11856;BME280;5987;53.140;8.904;2024-01-30T09:01:09;102734.38;;;5.63;100.00
11856;BME280;5987;53.140;8.904;2024-01-30T09:04:13;102726.75;;;5.76;100.00
11856;BME280;5987;53.140;8.904;2024-01-30T09:07:17;102706.75;;;5.78;100.00
11856;BME280;5987;53.140;8.904;2024-01-30T09:10:21;102697.25;;;5.80;100.00
11856;BME280;5987;53.140;8.904;2024-01-30T09:13:25;102691.31;;;5.93;100.00
11856;BME280;5987;53.140;8.904;2024-01-30T09:16:30;102684.31;;;5.89;100.00
11856;BME280;5987;53.140;8.904;2024-01-30T09:19:34;102668.88;;;6.01;100.00
11856;BME280;5987;53.140;8.904;2024-01-30T09:22:38;102677.53;;;5.99;100.00
11856;BME280;5987;53.140;8.904;2024-01-30T09:25:42;102674.06;;;6.00;100.00
11856;BME280;5987;53.140;8.904;2024-01-30T09:28:46;102682.66;;;5.96;100.00
11856;BME280;5987;53.140;8.904;2024-01-30T09:31:51;102674.22;;;6.14;100.00
11856;BME280;5987;53.140;8.904;2024-01-30T09:34:55;102656.94;;;6.24;100.00
11856;BME280;5987;53.140;8.904;2024-01-30T09:37:58;102652.53;;;6.18;100.00
11856;BME280;5987;53.140;8.904;2024-01-30T09:41:09;102657.81;;;6.26;100.00
11856;BME280;5987;53.140;8.904;2024-01-30T09:44:15;102649.28;;;6.41;100.00
11856;BME280;5987;53.140;8.904;2024-01-30T09:47:21;102650.16;;;6.40;100.00
11856;BME280;5987;53.140;8.904;2024-01-30T09:50:25;102651.91;;;6.42;100.00
11856;BME280;5987;53.140;8.904;2024-01-30T09:53:30;102655.50;;;6.53;100.00
11856;BME280;5987;53.140;8.904;2024-01-30T09:56:34;102638.22;;;6.68;100.00
11856;BME280;5987;53.140;8.904;2024-01-30T09:59:38;102648.66;;;6.66;100.00
11856;BME280;5987;53.140;8.904;2024-01-30T10:02:43;102649.59;;;6.75;100.00
11856;BME280;5987;53.140;8.904;2024-01-30T10:05:52;102635.81;;;6.90;100.00
11856;BME280;5987;53.140;8.904;2024-01-30T10:08:55;102635.78;;;6.85;100.00
11856;BME280;5987;53.140;8.904;2024-01-30T10:11:59;102625.38;;;6.90;100.00
11856;BME280;5987;53.140;8.904;2024-01-30T10:15:07;102629.75;;;6.94;100.00
11856;BME280;5987;53.140;8.904;2024-01-30T10:18:13;102631.53;;;7.01;100.00
11856;BME280;5987;53.140;8.904;2024-01-30T10:21:17;102626.31;;;7.04;100.00
11856;BME280;5987;53.140;8.904;2024-01-30T10:24:24;102625.47;;;7.08;100.00
11856;BME280;5987;53.140;8.904;2024-01-30T10:27:29;102628.16;;;7.16;100.00
11856;BME280;5987;53.140;8.904;2024-01-30T10:30:32;102627.25;;;7.14;100.00
11856;BME280;5987;53.140;8.904;2024-01-30T10:33:38;102624.72;;;7.26;100.00
11856;BME280;5987;53.140;8.904;2024-01-30T10:36:46;102621.28;;;7.32;100.00
11856;BME280;5987;53.140;8.904;2024-01-30T10:39:54;102612.63;;;7.45;100.00
11856;BME280;5987;53.140;8.904;2024-01-30T10:43:01;102601.38;;;7.54;100.00
11856;BME280;5987;53.140;8.904;2024-01-30T10:46:11;102602.22;;;7.58;100.00
11856;BME280;5987;53.140;8.904;2024-01-30T10:49:20;102605.75;;;7.64;100.00
11856;BME280;5987;53.140;8.904;2024-01-30T10:52:26;102597.06;;;7.71;100.00
11856;BME280;5987;53.140;8.904;2024-01-30T10:55:32;102606.66;;;7.76;100.00
11856;BME280;5987;53.140;8.904;2024-01-30T10:58:37;102591.88;;;7.79;100.00
11856;BME280;5987;53.140;8.904;2024-01-30T11:01:40;102592.78;;;7.95;100.00
11856;BME280;5987;53.140;8.904;2024-01-30T11:04:46;102591.06;;;8.00;100.00
11856;BME280;5987;53.140;8.904;2024-01-30T11:07:50;102590.19;;;8.12;100.00
11856;BME280;5987;53.140;8.904;2024-01-30T11:10:56;102583.22;;;8.23;100.00
11856;BME280;5987;53.140;8.904;2024-01-30T11:14:01;102581.50;;;8.29;100.00
11856;BME280;5987;53.140;8.904;2024-01-30T11:17:05;102571.91;;;8.38;100.00
11856;BME280;5987;53.140;8.904;2024-01-30T11:20:15;102566.69;;;8.51;100.00
11856;BME280;5987;53.140;8.904;2024-01-30T11:23:23;102578.06;;;8.51;100.00
11856;BME280;5987;53.140;8.904;2024-01-30T11:26:28;102568.44;;;8.55;100.00
11856;BME280;5987;53.140;8.904;2024-01-30T11:29:35;102565.84;;;8.63;100.00
11856;BME280;5987;53.140;8.904;2024-01-30T11:32:40;102560.56;;;8.69;100.00
11856;BME280;5987;53.140;8.904;2024-01-30T11:35:45;102557.06;;;8.74;100.00
11856;BME280;5987;53.140;8.904;2024-01-30T11:38:50;102567.56;;;8.84;100.00
11856;BME280;5987;53.140;8.904;2024-01-30T11:41:54;102567.53;;;8.87;100.00
11856;BME280;5987;53.140;8.904;2024-01-30T11:45:00;102563.16;;;8.93;100.00
11856;BME280;5987;53.140;8.904;2024-01-30T11:48:06;102538.66;;;9.08;100.00
11856;BME280;5987;53.140;8.904;2024-01-30T11:51:15;102527.34;;;9.03;100.00
11856;BME280;5987;53.140;8.904;2024-01-30T11:54:21;102528.22;;;9.01;100.00
11856;BME280;5987;53.140;8.904;2024-01-30T11:57:27;102530.84;;;9.01;100.00
11856;BME280;5987;53.140;8.904;2024-01-30T12:00:31;102541.34;;;8.93;100.00
11856;BME280;5987;53.140;8.904;2024-01-30T12:03:36;102545.72;;;8.86;100.00
11856;BME280;5987;53.140;8.904;2024-01-30T12:06:42;102543.13;;;8.75;100.00
11856;BME280;5987;53.140;8.904;2024-01-30T12:09:53;102552.75;;;8.73;100.00
11856;BME280;5987;53.140;8.904;2024-01-30T12:12:58;102557.94;;;8.80;100.00
11856;BME280;5987;53.140;8.904;2024-01-30T12:16:02;102557.97;;;8.73;100.00
11856;BME280;5987;53.140;8.904;2024-01-30T12:19:06;102571.06;;;8.75;100.00
11856;BME280;5987;53.140;8.904;2024-01-30T12:22:12;102570.16;;;8.76;100.00
11856;BME280;5987;53.140;8.904;2024-01-30T12:25:18;102573.66;;;8.80;100.00
11856;BME280;5987;53.140;8.904;2024-01-30T12:28:22;102576.28;;;8.86;100.00
11856;BME280;5987;53.140;8.904;2024-01-30T12:31:26;102577.16;;;8.85;100.00
11856;BME280;5987;53.140;8.904;2024-01-30T12:34:30;102580.63;;;8.90;100.00
11856;BME280;5987;53.140;8.904;2024-01-30T12:37:49;102580.63;;;8.96;100.00
11856;BME280;5987;53.140;8.904;2024-01-30T12:40:54;102561.38;;;9.09;100.00
11856;BME280;5987;53.140;8.904;2024-01-30T12:43:58;102576.25;;;9.04;100.00
11856;BME280;5987;53.140;8.904;2024-01-30T12:47:03;102556.16;;;9.03;100.00
11856;BME280;5987;53.140;8.904;2024-01-30T12:50:07;102560.50;;;9.10;100.00
11856;BME280;5987;53.140;8.904;2024-01-30T12:53:13;102566.59;;;9.19;100.00
11856;BME280;5987;53.140;8.904;2024-01-30T12:56:17;102557.00;;;9.16;100.00
11856;BME280;5987;53.140;8.904;2024-01-30T12:59:21;102555.25;;;9.20;100.00
11856;BME280;5987;53.140;8.904;2024-01-30T13:02:25;102550.88;;;9.13;100.00
11856;BME280;5987;53.140;8.904;2024-01-30T13:05:37;102560.53;;;9.09;100.00
11856;BME280;5987;53.140;8.904;2024-01-30T13:08:42;102560.50;;;9.12;100.00
11856;BME280;5987;53.140;8.904;2024-01-30T13:11:46;102557.88;;;9.12;100.00
11856;BME280;5987;53.140;8.904;2024-01-30T13:14:50;102561.31;;;9.25;100.00
11856;BME280;5987;53.140;8.904;2024-01-30T13:17:53;102561.38;;;9.19;100.00
11856;BME280;5987;53.140;8.904;2024-01-30T13:20:57;102564.00;;;9.16;100.00
11856;BME280;5987;53.140;8.904;2024-01-30T13:24:03;102549.13;;;9.16;100.00
11856;BME280;5987;53.140;8.904;2024-01-30T13:27:07;102559.56;;;9.24;100.00
11856;BME280;5987;53.140;8.904;2024-01-30T13:30:12;102563.09;;;9.26;100.00
11856;BME280;5987;53.140;8.904;2024-01-30T13:33:16;102559.59;;;9.21;100.00
11856;BME280;5987;53.140;8.904;2024-01-30T13:36:20;102564.88;;;9.15;100.00
11856;BME280;5987;53.140;8.904;2024-01-30T13:39:25;102566.63;;;9.09;100.00
11856;BME280;5987;53.140;8.904;2024-01-30T13:42:37;102563.13;;;9.12;100.00
11856;BME280;5987;53.140;8.904;2024-01-30T13:45:41;102570.94;;;9.18;100.00
11856;BME280;5987;53.140;8.904;2024-01-30T13:48:45;102571.84;;;9.19;100.00
11856;BME280;5987;53.140;8.904;2024-01-30T13:51:49;102567.47;;;9.21;100.00
11856;BME280;5987;53.140;8.904;2024-01-30T13:54:54;102572.69;;;9.19;100.00
11856;BME280;5987;53.140;8.904;2024-01-30T13:57:58;102565.66;;;9.34;100.00
11856;BME280;5987;53.140;8.904;2024-01-30T14:01:04;102568.31;;;9.29;100.00
11856;BME280;5987;53.140;8.904;2024-01-30T14:04:08;102569.19;;;9.31;100.00
11856;BME280;5987;53.140;8.904;2024-01-30T14:07:15;102575.28;;;9.41;100.00
11856;BME280;5987;53.140;8.904;2024-01-30T14:10:22;102574.38;;;9.43;100.00
11856;BME280;5987;53.140;8.904;2024-01-30T14:13:26;102568.22;;;9.48;100.00
11856;BME280;5987;53.140;8.904;2024-01-30T14:16:29;102576.09;;;9.48;100.00
11856;BME280;5987;53.140;8.904;2024-01-30T14:19:34;102574.38;;;9.47;100.00
11856;BME280;5987;53.140;8.904;2024-01-30T14:22:39;102568.16;;;9.63;100.00
11856;BME280;5987;53.140;8.904;2024-01-30T14:25:44;102566.44;;;9.59;100.00
11856;BME280;5987;53.140;8.904;2024-01-30T14:28:48;102563.81;;;9.57;100.00
11856;BME280;5987;53.140;8.904;2024-01-30T14:31:52;102569.09;;;9.54;100.00
11856;BME280;5987;53.140;8.904;2024-01-30T14:34:57;102570.81;;;9.60;100.00
11856;BME280;5987;53.140;8.904;2024-01-30T14:38:01;102571.69;;;9.62;100.00
11856;BME280;5987;53.140;8.904;2024-01-30T14:41:08;102568.09;;;9.77;100.00
11856;BME280;5987;53.140;8.904;2024-01-30T14:44:12;102559.28;;;9.92;100.00
11856;BME280;5987;53.140;8.904;2024-01-30T14:47:17;102556.69;;;9.83;100.00
11856;BME280;5987;53.140;8.904;2024-01-30T14:50:21;102547.13;;;9.75;100.00
11856;BME280;5987;53.140;8.904;2024-01-30T14:53:25;102557.66;;;9.69;100.00
11856;BME280;5987;53.140;8.904;2024-01-30T14:56:31;102548.06;;;9.60;100.00
11856;BME280;5987;53.140;8.904;2024-01-30T14:59:35;102551.59;;;9.52;100.00
11856;BME280;5987;53.140;8.904;2024-01-30T15:02:39;102551.63;;;9.47;100.00
11856;BME280;5987;53.140;8.904;2024-01-30T15:05:42;102556.03;;;9.40;100.00
11856;BME280;5987;53.140;8.904;2024-01-30T15:08:46;102562.22;;;9.29;100.00
11856;BME280;5987;53.140;8.904;2024-01-30T15:11:51;102570.09;;;9.18;100.00
11856;BME280;5987;53.140;8.904;2024-01-30T15:14:55;102574.47;;;9.20;100.00
11856;BME280;5987;53.140;8.904;2024-01-30T15:17:59;102577.03;;;9.28;100.00
11856;BME280;5987;53.140;8.904;2024-01-30T15:21:03;102569.19;;;9.26;100.00
11856;BME280;5987;53.140;8.904;2024-01-30T15:24:07;102561.31;;;9.28;100.00
11856;BME280;5987;53.140;8.904;2024-01-30T15:27:13;102558.72;;;9.25;100.00
11856;BME280;5987;53.140;8.904;2024-01-30T15:30:16;102561.31;;;9.34;100.00
11856;BME280;5987;53.140;8.904;2024-01-30T15:33:21;102549.94;;;9.32;100.00
11856;BME280;5987;53.140;8.904;2024-01-30T15:36:29;102560.41;;;9.41;100.00
11856;BME280;5987;53.140;8.904;2024-01-30T15:39:33;102545.53;;;9.40;100.00
11856;BME280;5987;53.140;8.904;2024-01-30T15:42:38;102547.34;;;9.35;100.00
11856;BME280;5987;53.140;8.904;2024-01-30T15:45:42;102545.56;;;9.37;100.00
11856;BME280;5987;53.140;8.904;2024-01-30T15:48:46;102542.97;;;9.33;100.00
11856;BME280;5987;53.140;8.904;2024-01-30T15:51:50;102549.97;;;9.29;100.00
11856;BME280;5987;53.140;8.904;2024-01-30T15:54:54;102552.63;;;9.21;100.00
11856;BME280;5987;53.140;8.904;2024-01-30T15:57:59;102554.34;;;9.30;100.00
11856;BME280;5987;53.140;8.904;2024-01-30T16:01:03;102553.47;;;9.30;100.00
11856;BME280;5987;53.140;8.904;2024-01-30T16:04:07;102553.47;;;9.26;100.00
11856;BME280;5987;53.140;8.904;2024-01-30T16:07:11;102556.97;;;9.25;100.00
11856;BME280;5987;53.140;8.904;2024-01-30T16:10:15;102559.53;;;9.39;100.00
11856;BME280;5987;53.140;8.904;2024-01-30T16:13:21;102559.56;;;9.30;100.00
11856;BME280;5987;53.140;8.904;2024-01-30T16:16:25;102553.41;;;9.39;100.00